sensor_id;sensor_type;location;lat;lon;timestamp;pressure;altitude;pressure_sealevel;temperature;humidity
4469;BME280;2247;42.666;23.292;2022-12-29T00:01:33;95284.22;;;10.03;60.39
4469;BME280;2247;42.666;23.292;2022-12-29T00:04:00;95277.91;;;9.82;61.54
4469;BME280;2247;42.666;23.292;2022-12-29T00:06:27;95272.81;;;9.76;61.56
4469;BME280;2247;42.666;23.292;2022-12-29T00:08:54;95277.38;;;9.80;61.77
4469;BME280;2247;42.666;23.292;2022-12-29T00:11:23;95279.50;;;9.83;61.62
4469;BME280;2247;42.666;23.292;2022-12-29T00:13:51;95276.28;;;9.98;61.58
4469;BME280;2247;42.666;23.292;2022-12-29T00:16:37;95281.97;;;10.12;61.16
4469;BME280;2247;42.666;23.292;2022-12-29T00:19:04;95277.72;;;9.89;61.63
4469;BME280;2247;42.666;23.292;2022-12-29T00:21:31;95283.97;;;9.83;61.71
4469;BME280;2247;42.666;23.292;2022-12-29T00:24:18;95282.13;;;9.83;61.24
4469;BME280;2247;42.666;23.292;2022-12-29T00:27:11;95289.19;;;10.00;61.05
4469;BME280;2247;42.666;23.292;2022-12-29T00:29:57;95292.91;;;10.20;60.41
4469;BME280;2247;42.666;23.292;2022-12-29T00:32:42;95289.16;;;9.95;60.64
4469;BME280;2247;42.666;23.292;2022-12-29T00:35:29;95295.44;;;9.94;60.99
4469;BME280;2247;42.666;23.292;2022-12-29T00:38:02;95304.28;;;10.26;60.19
4469;BME280;2247;42.666;23.292;2022-12-29T00:40:47;95291.91;;;10.48;59.67
4469;BME280;2247;42.666;23.292;2022-12-29T00:43:31;95305.59;;;10.72;58.87
4469;BME280;2247;42.666;23.292;2022-12-29T00:46:15;95306.34;;;10.68;58.67
4469;BME280;2247;42.666;23.292;2022-12-29T00:48:44;95311.13;;;10.71;58.99
4469;BME280;2247;42.666;23.292;2022-12-29T00:51:28;95310.22;;;10.60;59.07
4469;BME280;2247;42.666;23.292;2022-12-29T00:53:55;95307.31;;;10.61;59.05
4469;BME280;2247;42.666;23.292;2022-12-29T00:56:22;95302.84;;;10.62;59.28
4469;BME280;2247;42.666;23.292;2022-12-29T00:58:49;95304.66;;;10.56;59.40
4469;BME280;2247;42.666;23.292;2022-12-29T01:01:16;95299.97;;;10.37;60.17
4469;BME280;2247;42.666;23.292;2022-12-29T01:03:44;95298.66;;;10.39;60.49
4469;BME280;2247;42.666;23.292;2022-12-29T01:06:11;95307.78;;;10.32;60.73
4469;BME280;2247;42.666;23.292;2022-12-29T01:08:38;95303.81;;;10.29;60.45
4469;BME280;2247;42.666;23.292;2022-12-29T01:11:07;95303.31;;;10.32;60.52
4469;BME280;2247;42.666;23.292;2022-12-29T01:13:34;95290.97;;;10.38;59.75
4469;BME280;2247;42.666;23.292;2022-12-29T01:16:03;95306.31;;;10.41;60.11
4469;BME280;2247;42.666;23.292;2022-12-29T01:18:30;95296.88;;;10.45;59.86
4469;BME280;2247;42.666;23.292;2022-12-29T01:21:03;95293.19;;;10.46;59.96
4469;BME280;2247;42.666;23.292;2022-12-29T01:23:31;95263.63;;;10.17;60.34
4469;BME280;2247;42.666;23.292;2022-12-29T01:26:08;95286.41;;;10.28;60.37
4469;BME280;2247;42.666;23.292;2022-12-29T01:28:35;95296.09;;;10.22;60.54
4469;BME280;2247;42.666;23.292;2022-12-29T01:31:04;95295.31;;;10.22;60.98
4469;BME280;2247;42.666;23.292;2022-12-29T01:33:31;95280.59;;;10.26;60.60
4469;BME280;2247;42.666;23.292;2022-12-29T01:36:01;95282.59;;;10.41;59.87
4469;BME280;2247;42.666;23.292;2022-12-29T01:38:27;95272.25;;;10.34;60.13
4469;BME280;2247;42.666;23.292;2022-12-29T01:40:55;95274.09;;;10.34;59.95
4469;BME280;2247;42.666;23.292;2022-12-29T01:43:37;95267.97;;;10.28;60.26
4469;BME280;2247;42.666;23.292;2022-12-29T01:46:14;95266.25;;;10.17;60.19
4469;BME280;2247;42.666;23.292;2022-12-29T01:48:42;95264.97;;;10.41;59.57
4469;BME280;2247;42.666;23.292;2022-12-29T01:51:12;95273.63;;;10.37;59.60
4469;BME280;2247;42.666;23.292;2022-12-29T01:53:38;95268.38;;;10.42;59.21
4469;BME280;2247;42.666;23.292;2022-12-29T01:56:07;95268.53;;;10.30;59.74
4469;BME280;2247;42.666;23.292;2022-12-29T01:58:39;95266.50;;;10.37;59.67
4469;BME280;2247;42.666;23.292;2022-12-29T02:01:08;95272.25;;;10.34;60.25
4469;BME280;2247;42.666;23.292;2022-12-29T02:03:36;95257.44;;;10.28;60.26
4469;BME280;2247;42.666;23.292;2022-12-29T02:06:08;95257.06;;;10.41;59.78
4469;BME280;2247;42.666;23.292;2022-12-29T02:08:39;95254.22;;;10.48;59.84
4469;BME280;2247;42.666;23.292;2022-12-29T02:11:07;95254.06;;;10.59;59.18
4469;BME280;2247;42.666;23.292;2022-12-29T02:13:34;95246.50;;;10.68;58.80
4469;BME280;2247;42.666;23.292;2022-12-29T02:16:11;95242.59;;;10.71;58.74
4469;BME280;2247;42.666;23.292;2022-12-29T02:18:51;95239.88;;;10.65;58.61
4469;BME280;2247;42.666;23.292;2022-12-29T02:30:45;95252.72;;;10.84;57.66
4469;BME280;2247;42.666;23.292;2022-12-29T02:33:23;95243.56;;;10.91;56.99
4469;BME280;2247;42.666;23.292;2022-12-29T02:36:00;95253.97;;;11.08;56.56
4469;BME280;2247;42.666;23.292;2022-12-29T02:38:42;95251.41;;;11.18;56.27
4469;BME280;2247;42.666;23.292;2022-12-29T02:41:21;95234.09;;;10.95;55.91
4469;BME280;2247;42.666;23.292;2022-12-29T02:43:54;95255.88;;;10.86;56.48
4469;BME280;2247;42.666;23.292;2022-12-29T02:46:31;95253.53;;;10.84;56.85
4469;BME280;2247;42.666;23.292;2022-12-29T02:49:06;95260.09;;;10.82;56.54
4469;BME280;2247;42.666;23.292;2022-12-29T02:51:45;95257.25;;;10.88;56.82
4469;BME280;2247;42.666;23.292;2022-12-29T02:54:13;95248.53;;;10.88;56.96
4469;BME280;2247;42.666;23.292;2022-12-29T02:57:00;95246.47;;;10.95;56.79
4469;BME280;2247;42.666;23.292;2022-12-29T02:59:27;95248.31;;;10.94;56.57
4469;BME280;2247;42.666;23.292;2022-12-29T03:02:07;95235.94;;;10.95;56.85
4469;BME280;2247;42.666;23.292;2022-12-29T03:05:01;95242.03;;;11.00;56.59
4469;BME280;2247;42.666;23.292;2022-12-29T03:07:37;95236.94;;;10.89;57.32
4469;BME280;2247;42.666;23.292;2022-12-29T03:10:15;95239.00;;;10.82;57.74
4469;BME280;2247;42.666;23.292;2022-12-29T03:12:48;95230.31;;;10.86;57.59
4469;BME280;2247;42.666;23.292;2022-12-29T03:15:44;95225.16;;;10.64;57.88
4469;BME280;2247;42.666;23.292;2022-12-29T03:18:37;95229.28;;;10.55;58.16
4469;BME280;2247;42.666;23.292;2022-12-29T03:21:10;95221.38;;;10.55;58.27
4469;BME280;2247;42.666;23.292;2022-12-29T03:23:39;95225.25;;;10.48;58.61
4469;BME280;2247;42.666;23.292;2022-12-29T03:26:10;95225.06;;;10.59;58.10
4469;BME280;2247;42.666;23.292;2022-12-29T03:28:40;95223.59;;;10.69;57.83
4469;BME280;2247;42.666;23.292;2022-12-29T03:31:10;95225.22;;;10.75;57.46
4469;BME280;2247;42.666;23.292;2022-12-29T03:33:41;95227.59;;;10.76;57.37
4469;BME280;2247;42.666;23.292;2022-12-29T03:36:12;95233.13;;;10.75;57.62
4469;BME280;2247;42.666;23.292;2022-12-29T03:38:44;95241.06;;;10.80;57.34
4469;BME280;2247;42.666;23.292;2022-12-29T03:41:16;95235.53;;;10.76;57.32
4469;BME280;2247;42.666;23.292;2022-12-29T03:43:45;95231.47;;;10.63;57.77
4469;BME280;2247;42.666;23.292;2022-12-29T03:46:12;95227.88;;;10.48;58.41
4469;BME280;2247;42.666;23.292;2022-12-29T03:48:40;95227.66;;;10.54;58.30
4469;BME280;2247;42.666;23.292;2022-12-29T03:51:07;95233.44;;;10.51;58.33
4469;BME280;2247;42.666;23.292;2022-12-29T03:53:34;95239.97;;;10.44;58.53
4469;BME280;2247;42.666;23.292;2022-12-29T03:56:01;95246.56;;;10.73;58.13
4469;BME280;2247;42.666;23.292;2022-12-29T03:58:28;95248.31;;;10.62;58.06
4469;BME280;2247;42.666;23.292;2022-12-29T04:00:55;95243.88;;;10.41;58.60
4469;BME280;2247;42.666;23.292;2022-12-29T04:03:21;95252.28;;;10.38;58.51
4469;BME280;2247;42.666;23.292;2022-12-29T04:05:49;95257.44;;;10.28;59.00
4469;BME280;2247;42.666;23.292;2022-12-29T04:08:17;95249.91;;;10.15;59.30
4469;BME280;2247;42.666;23.292;2022-12-29T04:10:43;95252.53;;;10.15;59.29
4469;BME280;2247;42.666;23.292;2022-12-29T04:13:10;95241.81;;;10.00;59.73
4469;BME280;2247;42.666;23.292;2022-12-29T04:15:37;95247.88;;;10.00;59.90
4469;BME280;2247;42.666;23.292;2022-12-29T04:18:04;95250.63;;;9.88;59.93
4469;BME280;2247;42.666;23.292;2022-12-29T04:20:31;95249.06;;;9.71;60.25
4469;BME280;2247;42.666;23.292;2022-12-29T04:23:17;95251.69;;;9.49;60.47
4469;BME280;2247;42.666;23.292;2022-12-29T04:25:45;95225.59;;;9.26;60.77
4469;BME280;2247;42.666;23.292;2022-12-29T04:28:13;95249.44;;;9.41;60.77
4469;BME280;2247;42.666;23.292;2022-12-29T04:30:40;95260.09;;;9.68;60.31
4469;BME280;2247;42.666;23.292;2022-12-29T04:33:07;95253.94;;;9.79;59.34
4469;BME280;2247;42.666;23.292;2022-12-29T04:35:34;95259.69;;;9.98;59.22
4469;BME280;2247;42.666;23.292;2022-12-29T04:38:01;95263.97;;;10.04;58.55
4469;BME280;2247;42.666;23.292;2022-12-29T04:40:29;95265.69;;;10.15;58.33
4469;BME280;2247;42.666;23.292;2022-12-29T04:42:56;95264.75;;;10.21;58.23
4469;BME280;2247;42.666;23.292;2022-12-29T04:45:23;95273.97;;;10.23;57.88
4469;BME280;2247;42.666;23.292;2022-12-29T04:47:51;95268.66;;;10.18;57.93
4469;BME280;2247;42.666;23.292;2022-12-29T04:50:18;95274.94;;;9.96;58.42
4469;BME280;2247;42.666;23.292;2022-12-29T04:52:44;95280.69;;;9.93;58.51
4469;BME280;2247;42.666;23.292;2022-12-29T04:55:11;95284.72;;;9.62;59.70
4469;BME280;2247;42.666;23.292;2022-12-29T04:57:39;95293.38;;;9.40;60.15
4469;BME280;2247;42.666;23.292;2022-12-29T05:00:08;95288.47;;;9.11;61.05
4469;BME280;2247;42.666;23.292;2022-12-29T05:02:45;95278.78;;;8.99;61.34
4469;BME280;2247;42.666;23.292;2022-12-29T05:05:23;95276.78;;;8.73;62.10
4469;BME280;2247;42.666;23.292;2022-12-29T05:08:45;95275.63;;;8.97;61.47
4469;BME280;2247;42.666;23.292;2022-12-29T05:11:24;95280.06;;;9.14;61.24
4469;BME280;2247;42.666;23.292;2022-12-29T05:16:33;95291.88;;;9.44;60.28
4469;BME280;2247;42.666;23.292;2022-12-29T05:19:00;95295.19;;;9.57;60.02
4469;BME280;2247;42.666;23.292;2022-12-29T05:21:27;95279.34;;;9.52;59.57
4469;BME280;2247;42.666;23.292;2022-12-29T05:23:56;95265.47;;;9.56;59.47
4469;BME280;2247;42.666;23.292;2022-12-29T05:26:23;95286.25;;;9.74;59.51
4469;BME280;2247;42.666;23.292;2022-12-29T05:28:50;95262.28;;;9.76;59.14
4469;BME280;2247;42.666;23.292;2022-12-29T05:31:17;95288.25;;;9.89;59.21
4469;BME280;2247;42.666;23.292;2022-12-29T05:33:45;95287.41;;;9.83;59.49
4469;BME280;2247;42.666;23.292;2022-12-29T05:36:12;95268.63;;;9.75;59.37
4469;BME280;2247;42.666;23.292;2022-12-29T05:38:40;95284.84;;;9.88;59.31
4469;BME280;2247;42.666;23.292;2022-12-29T05:41:09;95291.19;;;9.71;60.05
4469;BME280;2247;42.666;23.292;2022-12-29T05:43:36;95294.69;;;9.76;60.15
4469;BME280;2247;42.666;23.292;2022-12-29T05:46:03;95288.19;;;9.84;59.85
4469;BME280;2247;42.666;23.292;2022-12-29T05:48:30;95288.31;;;9.72;60.31
4469;BME280;2247;42.666;23.292;2022-12-29T05:50:57;95288.44;;;9.82;60.40
4469;BME280;2247;42.666;23.292;2022-12-29T05:53:25;95294.13;;;9.96;60.00
4469;BME280;2247;42.666;23.292;2022-12-29T05:55:52;95297.09;;;10.00;59.73
4469;BME280;2247;42.666;23.292;2022-12-29T05:58:22;95300.41;;;10.12;59.91
4469;BME280;2247;42.666;23.292;2022-12-29T06:00:49;95299.03;;;10.26;59.49
4469;BME280;2247;42.666;23.292;2022-12-29T06:03:16;95296.69;;;10.08;59.61
4469;BME280;2247;42.666;23.292;2022-12-29T06:05:44;95296.25;;;9.94;60.28
4469;BME280;2247;42.666;23.292;2022-12-29T06:08:11;95303.06;;;9.73;60.70
4469;BME280;2247;42.666;23.292;2022-12-29T06:10:38;95287.88;;;9.59;60.89
4469;BME280;2247;42.666;23.292;2022-12-29T06:13:06;95308.88;;;9.75;60.93
4469;BME280;2247;42.666;23.292;2022-12-29T06:15:35;95312.00;;;9.72;61.49
4469;BME280;2247;42.666;23.292;2022-12-29T06:18:02;95310.22;;;9.78;61.23
4469;BME280;2247;42.666;23.292;2022-12-29T06:20:30;95312.69;;;9.84;61.02
4469;BME280;2247;42.666;23.292;2022-12-29T06:22:57;95300.38;;;9.90;61.23
4469;BME280;2247;42.666;23.292;2022-12-29T06:25:26;95309.47;;;9.99;61.00
4469;BME280;2247;42.666;23.292;2022-12-29T06:27:57;95301.00;;;9.97;61.00
4469;BME280;2247;42.666;23.292;2022-12-29T06:30:24;95310.44;;;9.93;61.09
4469;BME280;2247;42.666;23.292;2022-12-29T06:32:53;95306.59;;;10.01;60.95
4469;BME280;2247;42.666;23.292;2022-12-29T06:35:20;95306.53;;;9.96;61.10
4469;BME280;2247;42.666;23.292;2022-12-29T06:37:47;95313.75;;;10.22;62.49
4469;BME280;2247;42.666;23.292;2022-12-29T06:40:14;95310.19;;;10.33;60.46
4469;BME280;2247;42.666;23.292;2022-12-29T06:42:41;95313.59;;;10.34;59.79
4469;BME280;2247;42.666;23.292;2022-12-29T06:45:09;95314.22;;;10.19;60.16
4469;BME280;2247;42.666;23.292;2022-12-29T06:47:36;95319.47;;;10.19;60.19
4469;BME280;2247;42.666;23.292;2022-12-29T06:50:05;95323.25;;;10.23;60.21
4469;BME280;2247;42.666;23.292;2022-12-29T06:52:33;95318.22;;;10.21;60.19
4469;BME280;2247;42.666;23.292;2022-12-29T06:54:59;95316.66;;;10.25;60.23
4469;BME280;2247;42.666;23.292;2022-12-29T06:57:26;95324.75;;;10.41;59.73
4469;BME280;2247;42.666;23.292;2022-12-29T06:59:53;95323.69;;;10.63;59.00
4469;BME280;2247;42.666;23.292;2022-12-29T07:02:22;95315.88;;;10.74;58.33
4469;BME280;2247;42.666;23.292;2022-12-29T07:04:50;95318.13;;;10.87;59.14
4469;BME280;2247;42.666;23.292;2022-12-29T07:07:18;95330.16;;;11.04;57.97
4469;BME280;2247;42.666;23.292;2022-12-29T07:09:46;95322.25;;;11.04;57.71
4469;BME280;2247;42.666;23.292;2022-12-29T07:12:13;95324.53;;;10.69;58.56
4469;BME280;2247;42.666;23.292;2022-12-29T07:14:40;95328.09;;;10.58;58.78
4469;BME280;2247;42.666;23.292;2022-12-29T07:17:07;95316.72;;;10.79;58.05
4469;BME280;2247;42.666;23.292;2022-12-29T07:19:34;95322.78;;;10.80;57.96
4469;BME280;2247;42.666;23.292;2022-12-29T07:22:00;95317.56;;;11.12;57.42
4469;BME280;2247;42.666;23.292;2022-12-29T07:24:29;95316.25;;;11.14;57.06
4469;BME280;2247;42.666;23.292;2022-12-29T07:26:56;95322.66;;;11.18;56.37
4469;BME280;2247;42.666;23.292;2022-12-29T07:29:23;95331.28;;;11.14;56.70
4469;BME280;2247;42.666;23.292;2022-12-29T07:31:49;95322.34;;;11.15;56.71
4469;BME280;2247;42.666;23.292;2022-12-29T07:34:16;95327.91;;;11.50;55.35
4469;BME280;2247;42.666;23.292;2022-12-29T07:36:43;95326.22;;;11.71;54.77
4469;BME280;2247;42.666;23.292;2022-12-29T07:39:10;95315.78;;;11.86;54.50
4469;BME280;2247;42.666;23.292;2022-12-29T07:41:38;95321.53;;;11.78;54.82
4469;BME280;2247;42.666;23.292;2022-12-29T07:44:05;95310.50;;;11.91;54.07
4469;BME280;2247;42.666;23.292;2022-12-29T07:46:32;95319.88;;;11.72;54.31
4469;BME280;2247;42.666;23.292;2022-12-29T07:48:59;95326.66;;;11.63;55.06
4469;BME280;2247;42.666;23.292;2022-12-29T07:51:25;95320.56;;;11.89;54.34
4469;BME280;2247;42.666;23.292;2022-12-29T07:53:55;95325.06;;;11.94;54.09
4469;BME280;2247;42.666;23.292;2022-12-29T07:56:22;95328.47;;;11.89;54.74
4469;BME280;2247;42.666;23.292;2022-12-29T07:58:50;95328.78;;;11.98;54.15
4469;BME280;2247;42.666;23.292;2022-12-29T08:01:17;95321.16;;;12.01;54.07
4469;BME280;2247;42.666;23.292;2022-12-29T08:03:44;95327.47;;;11.95;53.95
4469;BME280;2247;42.666;23.292;2022-12-29T08:06:11;95327.00;;;12.08;53.68
4469;BME280;2247;42.666;23.292;2022-12-29T08:08:38;95338.72;;;12.33;53.32
4469;BME280;2247;42.666;23.292;2022-12-29T08:11:05;95330.72;;;12.17;53.16
4469;BME280;2247;42.666;23.292;2022-12-29T08:13:32;95332.84;;;12.15;53.56
4469;BME280;2247;42.666;23.292;2022-12-29T08:16:01;95336.09;;;12.38;53.09
4469;BME280;2247;42.666;23.292;2022-12-29T08:18:27;95330.44;;;12.81;52.51
4469;BME280;2247;42.666;23.292;2022-12-29T08:20:54;95328.63;;;12.97;51.63
4469;BME280;2247;42.666;23.292;2022-12-29T08:23:21;95321.78;;;13.11;55.89
4469;BME280;2247;42.666;23.292;2022-12-29T08:25:56;95322.59;;;13.42;53.65
4469;BME280;2247;42.666;23.292;2022-12-29T08:28:23;95323.13;;;13.69;52.42
4469;BME280;2247;42.666;23.292;2022-12-29T08:30:50;95325.75;;;13.95;52.92
4469;BME280;2247;42.666;23.292;2022-12-29T08:33:19;95324.13;;;13.99;51.14
4469;BME280;2247;42.666;23.292;2022-12-29T08:35:45;95322.59;;;13.88;51.61
4469;BME280;2247;42.666;23.292;2022-12-29T08:38:12;95322.25;;;14.04;50.61
4469;BME280;2247;42.666;23.292;2022-12-29T08:40:40;95319.19;;;13.62;49.75
4469;BME280;2247;42.666;23.292;2022-12-29T08:43:06;95321.81;;;13.36;51.10
4469;BME280;2247;42.666;23.292;2022-12-29T08:45:33;95322.88;;;13.61;51.14
4469;BME280;2247;42.666;23.292;2022-12-29T08:48:01;95319.16;;;13.57;49.73
4469;BME280;2247;42.666;23.292;2022-12-29T08:50:29;95319.94;;;13.72;50.73
4469;BME280;2247;42.666;23.292;2022-12-29T08:52:56;95327.09;;;13.72;50.73
4469;BME280;2247;42.666;23.292;2022-12-29T08:55:23;95321.50;;;13.84;51.38
4469;BME280;2247;42.666;23.292;2022-12-29T08:57:49;95320.44;;;13.95;51.12
4469;BME280;2247;42.666;23.292;2022-12-29T09:00:17;95320.19;;;13.96;50.19
4469;BME280;2247;42.666;23.292;2022-12-29T09:02:45;95306.13;;;14.01;48.94
4469;BME280;2247;42.666;23.292;2022-12-29T09:05:12;95308.53;;;13.87;50.48
4469;BME280;2247;42.666;23.292;2022-12-29T09:07:40;95307.19;;;13.95;49.91
4469;BME280;2247;42.666;23.292;2022-12-29T09:10:08;95306.41;;;13.84;49.11
4469;BME280;2247;42.666;23.292;2022-12-29T09:12:34;95304.59;;;13.64;49.38
4469;BME280;2247;42.666;23.292;2022-12-29T09:15:02;95305.69;;;13.48;49.63
4469;BME280;2247;42.666;23.292;2022-12-29T09:17:29;95304.34;;;13.51;49.03
4469;BME280;2247;42.666;23.292;2022-12-29T09:20:09;95292.16;;;13.29;49.51
4469;BME280;2247;42.666;23.292;2022-12-29T09:22:37;95305.91;;;13.06;50.76
4469;BME280;2247;42.666;23.292;2022-12-29T09:25:06;95296.91;;;13.12;50.82
4469;BME280;2247;42.666;23.292;2022-12-29T09:27:34;95285.75;;;12.85;51.22
4469;BME280;2247;42.666;23.292;2022-12-29T09:30:03;95285.44;;;12.61;51.70
4469;BME280;2247;42.666;23.292;2022-12-29T09:32:31;95281.50;;;12.63;51.97
4469;BME280;2247;42.666;23.292;2022-12-29T09:34:58;95289.72;;;13.08;51.84
4469;BME280;2247;42.666;23.292;2022-12-29T09:37:25;95291.91;;;13.31;50.82
4469;BME280;2247;42.666;23.292;2022-12-29T09:39:52;95281.31;;;13.41;50.87
4469;BME280;2247;42.666;23.292;2022-12-29T09:42:23;95271.28;;;13.13;51.20
4469;BME280;2247;42.666;23.292;2022-12-29T09:45:00;95271.22;;;12.92;51.57
4469;BME280;2247;42.666;23.292;2022-12-29T09:47:31;95279.94;;;13.03;51.58
4469;BME280;2247;42.666;23.292;2022-12-29T09:50:02;95268.88;;;13.16;51.25
4469;BME280;2247;42.666;23.292;2022-12-29T09:52:32;95257.50;;;13.31;52.11
4469;BME280;2247;42.666;23.292;2022-12-29T09:55:03;95271.50;;;13.36;50.31
4469;BME280;2247;42.666;23.292;2022-12-29T09:57:34;95265.16;;;13.37;50.30
4469;BME280;2247;42.666;23.292;2022-12-29T10:00:06;95263.84;;;13.40;50.47
4469;BME280;2247;42.666;23.292;2022-12-29T10:02:38;95267.81;;;13.48;50.06
4469;BME280;2247;42.666;23.292;2022-12-29T10:05:20;95262.25;;;13.29;50.70
4469;BME280;2247;42.666;23.292;2022-12-29T10:07:57;95259.63;;;13.24;50.60
4469;BME280;2247;42.666;23.292;2022-12-29T10:10:33;95253.50;;;13.03;51.65
4469;BME280;2247;42.666;23.292;2022-12-29T10:13:16;95244.47;;;12.94;51.54
4469;BME280;2247;42.666;23.292;2022-12-29T10:15:56;95251.09;;;13.01;52.11
4469;BME280;2247;42.666;23.292;2022-12-29T10:18:43;95251.66;;;13.24;51.99
4469;BME280;2247;42.666;23.292;2022-12-29T10:21:25;95253.00;;;13.31;51.47
4469;BME280;2247;42.666;23.292;2022-12-29T10:23:56;95242.91;;;13.44;51.57
4469;BME280;2247;42.666;23.292;2022-12-29T10:26:27;95232.81;;;13.56;51.04
4469;BME280;2247;42.666;23.292;2022-12-29T10:28:58;95236.00;;;13.63;50.98
4469;BME280;2247;42.666;23.292;2022-12-29T10:31:33;95233.09;;;13.59;50.89
4469;BME280;2247;42.666;23.292;2022-12-29T10:34:06;95234.41;;;13.67;51.16
4469;BME280;2247;42.666;23.292;2022-12-29T10:36:40;95229.91;;;13.62;51.25
4469;BME280;2247;42.666;23.292;2022-12-29T10:39:13;95223.09;;;13.31;50.93
4469;BME280;2247;42.666;23.292;2022-12-29T10:41:45;95223.63;;;13.13;51.86
4469;BME280;2247;42.666;23.292;2022-12-29T10:44:16;95224.66;;;13.07;52.04
4469;BME280;2247;42.666;23.292;2022-12-29T10:46:51;95220.41;;;12.95;51.80
4469;BME280;2247;42.666;23.292;2022-12-29T10:49:21;95213.53;;;12.79;52.71
4469;BME280;2247;42.666;23.292;2022-12-29T10:51:48;95208.22;;;12.79;52.95
4469;BME280;2247;42.666;23.292;2022-12-29T10:54:21;95206.09;;;12.66;53.12
4469;BME280;2247;42.666;23.292;2022-12-29T10:56:52;95206.69;;;12.78;52.90
4469;BME280;2247;42.666;23.292;2022-12-29T10:59:24;95206.91;;;13.07;52.55
4469;BME280;2247;42.666;23.292;2022-12-29T11:01:58;95166.44;;;13.01;52.48
4469;BME280;2247;42.666;23.292;2022-12-29T11:04:35;95199.53;;;13.14;52.14
4469;BME280;2247;42.666;23.292;2022-12-29T11:07:08;95194.50;;;12.97;52.90
4469;BME280;2247;42.666;23.292;2022-12-29T11:09:37;95193.97;;;13.16;52.46
4469;BME280;2247;42.666;23.292;2022-12-29T11:12:19;95193.97;;;13.31;52.39
4469;BME280;2247;42.666;23.292;2022-12-29T11:15:02;95183.38;;;13.41;52.17
4469;BME280;2247;42.666;23.292;2022-12-29T11:17:43;95172.22;;;13.54;51.76
4469;BME280;2247;42.666;23.292;2022-12-29T11:20:28;95182.72;;;13.79;51.56
4469;BME280;2247;42.666;23.292;2022-12-29T11:22:55;95177.72;;;13.73;50.61
4469;BME280;2247;42.666;23.292;2022-12-29T11:25:22;95177.47;;;13.64;50.93
4469;BME280;2247;42.666;23.292;2022-12-29T11:27:55;95180.66;;;13.61;50.89
4469;BME280;2247;42.666;23.292;2022-12-29T11:30:25;95173.28;;;13.53;51.34
4469;BME280;2247;42.666;23.292;2022-12-29T11:32:53;95175.66;;;13.50;51.57
4469;BME280;2247;42.666;23.292;2022-12-29T11:35:31;95172.16;;;13.64;51.28
4469;BME280;2247;42.666;23.292;2022-12-29T11:37:59;95177.72;;;13.68;51.18
4469;BME280;2247;42.666;23.292;2022-12-29T11:40:26;95170.59;;;13.58;51.27
4469;BME280;2247;42.666;23.292;2022-12-29T11:42:55;95172.69;;;13.66;50.79
4469;BME280;2247;42.666;23.292;2022-12-29T11:45:26;95147.28;;;13.65;50.34
4469;BME280;2247;42.666;23.292;2022-12-29T11:47:57;95168.44;;;13.70;50.54
4469;BME280;2247;42.666;23.292;2022-12-29T11:50:25;95162.06;;;13.71;50.57
4469;BME280;2247;42.666;23.292;2022-12-29T11:52:59;95161.84;;;13.68;50.51
4469;BME280;2247;42.666;23.292;2022-12-29T11:55:27;95164.78;;;13.56;51.50
4469;BME280;2247;42.666;23.292;2022-12-29T11:57:58;95156.28;;;13.64;50.62
4469;BME280;2247;42.666;23.292;2022-12-29T12:00:31;95167.41;;;13.66;50.83
4469;BME280;2247;42.666;23.292;2022-12-29T12:03:01;95160.78;;;13.69;51.86
4469;BME280;2247;42.666;23.292;2022-12-29T12:05:36;95163.63;;;13.88;50.71
4469;BME280;2247;42.666;23.292;2022-12-29T12:08:11;95159.34;;;13.92;50.77
4469;BME280;2247;42.666;23.292;2022-12-29T12:10:44;95153.00;;;13.88;50.69
4469;BME280;2247;42.666;23.292;2022-12-29T12:13:23;95155.69;;;13.83;50.39
4469;BME280;2247;42.666;23.292;2022-12-29T12:15:58;95138.22;;;13.76;50.37
4469;BME280;2247;42.666;23.292;2022-12-29T12:18:39;95151.31;;;14.07;50.15
4469;BME280;2247;42.666;23.292;2022-12-29T12:21:23;95146.00;;;14.12;50.23
4469;BME280;2247;42.666;23.292;2022-12-29T12:24:08;95148.63;;;14.12;49.80
4469;BME280;2247;42.666;23.292;2022-12-29T12:26:52;95141.25;;;14.09;50.06
4469;BME280;2247;42.666;23.292;2022-12-29T12:29:25;95137.44;;;14.25;49.49
4469;BME280;2247;42.666;23.292;2022-12-29T12:31:57;95137.63;;;13.95;49.74
4469;BME280;2247;42.666;23.292;2022-12-29T12:34:32;95142.75;;;13.76;50.63
4469;BME280;2247;42.666;23.292;2022-12-29T12:37:27;95132.69;;;13.73;50.66
4469;BME280;2247;42.666;23.292;2022-12-29T12:43:02;95128.19;;;13.68;50.96
4469;BME280;2247;42.666;23.292;2022-12-29T12:45:45;95138.22;;;13.76;50.88
4469;BME280;2247;42.666;23.292;2022-12-29T12:48:36;95130.56;;;13.75;50.84
4469;BME280;2247;42.666;23.292;2022-12-29T12:51:15;95131.13;;;13.67;50.83
4469;BME280;2247;42.666;23.292;2022-12-29T12:53:55;95131.41;;;13.60;50.86
4469;BME280;2247;42.666;23.292;2022-12-29T12:56:37;95127.69;;;13.61;51.48
4469;BME280;2247;42.666;23.292;2022-12-29T12:59:15;95111.44;;;13.78;51.02
4469;BME280;2247;42.666;23.292;2022-12-29T13:01:53;95128.19;;;13.68;51.40
4469;BME280;2247;42.666;23.292;2022-12-29T13:05:02;95127.63;;;13.76;51.15
4469;BME280;2247;42.666;23.292;2022-12-29T13:07:44;95129.72;;;13.79;50.67
4469;BME280;2247;42.666;23.292;2022-12-29T13:10:28;95132.41;;;13.74;51.54
4469;BME280;2247;42.666;23.292;2022-12-29T13:13:12;95129.09;;;13.98;50.67
4469;BME280;2247;42.666;23.292;2022-12-29T13:15:48;95125.88;;;14.06;50.26
4469;BME280;2247;42.666;23.292;2022-12-29T13:18:25;95133.84;;;14.06;50.15
4469;BME280;2247;42.666;23.292;2022-12-29T13:21:00;95130.03;;;14.22;49.99
4469;BME280;2247;42.666;23.292;2022-12-29T13:23:34;95133.47;;;14.23;49.96
4469;BME280;2247;42.666;23.292;2022-12-29T13:26:10;95134.81;;;14.20;49.72
4469;BME280;2247;42.666;23.292;2022-12-29T13:28:46;95134.94;;;14.00;50.49
4469;BME280;2247;42.666;23.292;2022-12-29T13:31:23;95136.47;;;14.06;50.28
4469;BME280;2247;42.666;23.292;2022-12-29T13:34:00;95136.44;;;14.11;50.22
4469;BME280;2247;42.666;23.292;2022-12-29T13:36:37;95145.50;;;14.05;50.44
4469;BME280;2247;42.666;23.292;2022-12-29T13:39:11;95135.41;;;14.07;50.49
4469;BME280;2247;42.666;23.292;2022-12-29T13:41:41;95137.34;;;13.91;50.87
4469;BME280;2247;42.666;23.292;2022-12-29T13:44:16;95139.53;;;13.79;51.73
4469;BME280;2247;42.666;23.292;2022-12-29T13:46:45;95142.38;;;13.93;51.37
4469;BME280;2247;42.666;23.292;2022-12-29T13:49:16;95150.44;;;13.62;52.02
4469;BME280;2247;42.666;23.292;2022-12-29T13:51:48;95134.06;;;13.60;52.26